createdAt,value
2016-12-08T00:00:01.880Z,0
2016-12-08T00:01:02.196Z,0
2016-12-08T00:02:01.868Z,0
2016-12-08T00:03:01.556Z,0
2016-12-08T00:04:01.864Z,0
2016-12-08T00:05:01.860Z,0
2016-12-08T00:06:02.176Z,0
2016-12-08T00:07:02.180Z,0
2016-12-08T00:08:01.848Z,0
2016-12-08T00:09:01.524Z,0
2016-12-08T00:10:02.160Z,0
2016-12-08T00:11:02.164Z,0
2016-12-08T00:12:02.152Z,0
2016-12-08T00:13:01.824Z,0
2016-12-08T00:14:02.153Z,0
2016-12-08T00:15:02.140Z,0
2016-12-08T00:16:02.136Z,0
2016-12-08T00:17:02.136Z,0
2016-12-08T00:18:02.128Z,0
2016-12-08T00:19:02.124Z,0
2016-12-08T00:20:01.799Z,0
2016-12-08T00:21:02.116Z,0
2016-12-08T00:22:02.108Z,0
2016-12-08T00:23:01.784Z,0
2016-12-08T00:24:02.104Z,0
2016-12-08T00:25:02.096Z,0
2016-12-08T00:26:01.772Z,0
2016-12-08T00:27:01.768Z,0
2016-12-08T00:28:02.084Z,0
2016-12-08T00:29:01.444Z,0
2016-12-08T00:30:02.076Z,0
2016-12-08T00:31:02.076Z,0
2016-12-08T00:32:01.748Z,0
2016-12-08T00:33:01.744Z,0
2016-12-08T00:34:02.069Z,0
2016-12-08T00:35:02.056Z,0
2016-12-08T00:36:02.056Z,0
2016-12-08T00:37:02.076Z,0
2016-12-08T00:38:02.052Z,0
2016-12-08T00:39:01.720Z,0
2016-12-08T00:40:02.040Z,0
2016-12-08T00:41:01.713Z,0
2016-12-08T00:42:02.029Z,0
2016-12-08T00:43:02.030Z,0
2016-12-08T00:44:02.024Z,0
2016-12-08T00:45:02.017Z,0
2016-12-08T00:46:02.020Z,0
2016-12-08T00:47:02.016Z,0
2016-12-08T00:48:01.681Z,0
2016-12-08T00:49:02.013Z,0
2016-12-08T00:50:02.004Z,0
2016-12-08T00:51:01.993Z,0
2016-12-08T00:52:01.985Z,0
2016-12-08T00:53:01.981Z,0
2016-12-08T00:54:03.396Z,0
2016-12-08T00:55:01.972Z,0
2016-12-08T00:56:01.648Z,0
2016-12-08T00:57:01.977Z,0
2016-12-08T00:58:01.965Z,0
2016-12-08T00:59:01.321Z,0
2016-12-08T01:00:01.637Z,0
2016-12-08T01:01:01.953Z,0
2016-12-08T01:02:01.949Z,0
2016-12-08T01:03:01.942Z,0
2016-12-08T01:04:01.954Z,0
2016-12-08T01:05:01.941Z,0
2016-12-08T01:06:01.930Z,0
2016-12-08T01:07:01.926Z,0
2016-12-08T01:08:01.950Z,0
2016-12-08T01:09:01.926Z,0
2016-12-08T01:10:01.918Z,0
2016-12-08T01:11:01.914Z,0
2016-12-08T01:12:01.906Z,0
2016-12-08T01:13:01.902Z,0
2016-12-08T01:14:01.899Z,0
2016-12-08T01:15:01.903Z,0
2016-12-08T01:16:01.894Z,0
2016-12-08T01:17:01.919Z,0
2016-12-08T01:18:01.883Z,0
2016-12-08T01:19:01.879Z,0
2016-12-08T01:20:01.875Z,0
2016-12-08T01:21:01.551Z,0
2016-12-08T01:22:01.864Z,0
2016-12-08T01:23:01.867Z,0
2016-12-08T01:24:01.863Z,0
2016-12-08T01:25:01.852Z,0
2016-12-08T01:26:01.852Z,0
2016-12-08T01:27:01.844Z,0
2016-12-08T01:28:01.840Z,0
2016-12-08T01:29:01.524Z,0
2016-12-08T01:30:01.195Z,0
2016-12-08T01:31:01.832Z,0
2016-12-08T01:32:01.832Z,0
2016-12-08T01:33:01.520Z,0
2016-12-08T01:34:01.816Z,0
2016-12-08T01:35:01.492Z,0
2016-12-08T01:36:01.808Z,0
2016-12-08T01:37:01.840Z,0
2016-12-08T01:38:01.480Z,0
2016-12-08T01:39:01.480Z,0
2016-12-08T01:40:01.797Z,0
2016-12-08T01:41:01.793Z,0
2016-12-08T01:42:02.081Z,0
2016-12-08T01:43:01.777Z,0
2016-12-08T01:44:01.777Z,0
2016-12-08T01:45:01.457Z,0
2016-12-08T01:46:01.773Z,0
2016-12-08T01:47:01.765Z,0
2016-12-08T01:48:01.433Z,0
2016-12-08T01:49:01.753Z,0
2016-12-08T01:50:01.765Z,0
2016-12-08T01:51:01.745Z,0
2016-12-08T01:52:01.745Z,0
2016-12-08T01:53:01.417Z,0
2016-12-08T01:54:01.733Z,0
2016-12-08T01:55:01.416Z,0
2016-12-08T01:56:01.724Z,0
2016-12-08T01:57:01.720Z,0
2016-12-08T01:58:01.720Z,0
2016-12-08T01:59:01.716Z,0
2016-12-08T02:00:01.712Z,0
2016-12-08T02:01:01.704Z,0
2016-12-08T02:02:01.379Z,0
2016-12-08T02:03:01.695Z,0
2016-12-08T02:04:01.052Z,0
2016-12-08T02:05:01.363Z,0
2016-12-08T02:06:01.363Z,0
2016-12-08T02:07:01.355Z,0
2016-12-08T02:08:01.675Z,0
2016-12-08T02:09:01.667Z,0
2016-12-08T02:10:01.347Z,0
2016-12-08T02:11:01.659Z,0
2016-12-08T02:12:01.666Z,0
2016-12-08T02:13:01.651Z,0
2016-12-08T02:14:01.326Z,0
2016-12-08T02:15:01.330Z,0
2016-12-08T02:16:01.319Z,0
2016-12-08T02:17:01.634Z,0
2016-12-08T02:18:01.310Z,0
2016-12-08T02:19:01.306Z,0
2016-12-08T02:20:01.626Z,0
2016-12-08T02:21:01.618Z,0
2016-12-08T02:22:01.609Z,0
2016-12-08T02:23:01.298Z,0
2016-12-08T02:24:01.605Z,0
2016-12-08T02:25:00.962Z,0
2016-12-08T02:26:01.277Z,0
2016-12-08T02:27:01.590Z,0
2016-12-08T02:28:01.269Z,0
2016-12-08T02:29:01.586Z,0
2016-12-08T02:30:01.586Z,0
2016-12-08T02:31:01.574Z,0
2016-12-08T02:32:01.570Z,0
2016-12-08T02:33:01.578Z,0
2016-12-08T02:34:01.566Z,0
2016-12-08T02:35:01.569Z,0
2016-12-08T02:36:01.239Z,0
2016-12-08T02:37:01.230Z,0
2016-12-08T02:38:01.547Z,0
2016-12-08T02:39:01.555Z,0
2016-12-08T02:40:01.219Z,0
2016-12-08T02:41:01.218Z,0
2016-12-08T02:42:01.539Z,0
2016-12-08T02:43:01.527Z,0
2016-12-08T02:44:01.527Z,0
2016-12-08T02:45:01.203Z,0
2016-12-08T02:46:01.199Z,0
2016-12-08T02:47:01.511Z,0
2016-12-08T02:48:01.185Z,0
2016-12-08T02:49:01.515Z,0
2016-12-08T02:50:01.495Z,0
2016-12-08T02:51:01.491Z,0
2016-12-08T02:52:01.487Z,0
2016-12-08T02:53:01.488Z,0
2016-12-08T02:54:01.479Z,0
2016-12-08T02:55:01.155Z,0
2016-12-08T02:56:01.507Z,0
2016-12-08T02:57:01.468Z,0
2016-12-08T02:58:01.463Z,0
2016-12-08T02:59:01.143Z,0
2016-12-08T03:00:01.459Z,0
2016-12-08T03:01:01.456Z,0
2016-12-08T03:02:01.452Z,0
2016-12-08T03:03:01.475Z,0
2016-12-08T03:04:01.444Z,0
2016-12-08T03:05:01.443Z,0
2016-12-08T03:06:01.439Z,0
2016-12-08T03:07:01.433Z,0
2016-12-08T03:08:01.100Z,0
2016-12-08T03:09:01.424Z,0
2016-12-08T03:10:01.416Z,0
2016-12-08T03:11:01.444Z,0
2016-12-08T03:12:01.413Z,0
2016-12-08T03:13:01.081Z,0
2016-12-08T03:14:01.077Z,0
2016-12-08T03:15:01.392Z,0
2016-12-08T03:16:01.076Z,0
2016-12-08T03:17:00.748Z,0
2016-12-08T03:18:01.384Z,0
2016-12-08T03:19:01.376Z,0
2016-12-08T03:20:01.376Z,0
2016-12-08T03:21:01.364Z,0
2016-12-08T03:22:01.368Z,0
2016-12-08T03:23:01.044Z,0
2016-12-08T03:24:01.357Z,0
2016-12-08T03:25:01.354Z,0
2016-12-08T03:26:01.348Z,0
2016-12-08T03:27:01.025Z,0
2016-12-08T03:28:01.336Z,0
2016-12-08T03:29:01.337Z,0
2016-12-08T03:30:01.329Z,0
2016-12-08T03:31:01.328Z,0
2016-12-08T03:32:01.324Z,0
2016-12-08T03:33:01.317Z,0
2016-12-08T03:34:01.313Z,0
2016-12-08T03:35:01.305Z,0
2016-12-08T03:36:00.980Z,0
2016-12-08T03:37:01.296Z,0
2016-12-08T03:38:00.983Z,0
2016-12-08T03:39:00.968Z,0
2016-12-08T03:40:00.644Z,0
2016-12-08T03:41:01.284Z,0
2016-12-08T03:42:00.960Z,0
2016-12-08T03:43:01.295Z,0
2016-12-08T03:44:01.267Z,0
2016-12-08T03:45:00.975Z,0
2016-12-08T03:46:00.943Z,0
2016-12-08T03:47:01.279Z,0
2016-12-08T03:48:01.254Z,0
2016-12-08T03:49:01.247Z,0
2016-12-08T03:50:00.927Z,0
2016-12-08T03:51:00.914Z,0
2016-12-08T03:52:01.230Z,0
2016-12-08T03:53:01.226Z,0
2016-12-08T03:54:01.226Z,0
2016-12-08T03:55:01.219Z,0
2016-12-08T03:56:01.221Z,0
2016-12-08T03:57:00.890Z,0
2016-12-08T03:58:01.207Z,0
2016-12-08T03:59:00.894Z,0
2016-12-08T04:00:01.203Z,0
2016-12-08T04:01:00.879Z,0
2016-12-08T04:02:01.196Z,0
2016-12-08T04:03:01.187Z,0
2016-12-08T04:04:00.859Z,0
2016-12-08T04:05:01.175Z,0
2016-12-08T04:06:01.171Z,0
2016-12-08T04:07:01.167Z,0
2016-12-08T04:08:00.855Z,0
2016-12-08T04:09:00.843Z,0
2016-12-08T04:10:01.159Z,0
2016-12-08T04:11:01.155Z,0
2016-12-08T04:12:01.147Z,0
2016-12-08T04:13:01.143Z,0
2016-12-08T04:14:00.823Z,0
2016-12-08T04:15:00.829Z,0
2016-12-08T04:16:01.140Z,0
2016-12-08T04:17:01.131Z,0
2016-12-08T04:18:01.123Z,0
2016-12-08T04:19:01.116Z,0
2016-12-08T04:20:01.116Z,0
2016-12-08T04:21:01.112Z,0
2016-12-08T04:22:01.104Z,0
2016-12-08T04:23:01.104Z,0
2016-12-08T04:24:00.780Z,0
2016-12-08T04:25:00.452Z,0
2016-12-08T04:26:01.092Z,0
2016-12-08T04:27:01.084Z,0
2016-12-08T04:28:01.080Z,0
2016-12-08T04:29:00.760Z,0
2016-12-08T04:30:00.752Z,0
2016-12-08T04:31:01.068Z,0
2016-12-08T04:32:00.740Z,0
2016-12-08T04:33:00.788Z,0
2016-12-08T04:34:01.068Z,0
2016-12-08T04:35:01.052Z,0
2016-12-08T04:36:01.052Z,0
2016-12-08T04:37:01.069Z,0
2016-12-08T04:38:00.720Z,0
2016-12-08T04:39:00.744Z,0
2016-12-08T04:40:00.716Z,0
2016-12-08T04:41:00.709Z,0
2016-12-08T04:42:00.701Z,0
2016-12-08T04:43:00.700Z,0
2016-12-08T04:44:00.693Z,0
2016-12-08T04:45:00.697Z,0
2016-12-08T04:46:01.001Z,0
2016-12-08T04:47:01.005Z,0
2016-12-08T04:48:00.997Z,0
2016-12-08T04:49:00.990Z,0
2016-12-08T04:50:00.669Z,0
2016-12-08T04:51:00.662Z,0
2016-12-08T04:52:00.983Z,0
2016-12-08T04:53:01.006Z,0
2016-12-08T04:54:00.974Z,0
2016-12-08T04:55:00.982Z,12
2016-12-08T04:56:00.642Z,12
2016-12-08T04:57:00.954Z,0
2016-12-08T04:58:00.950Z,12
2016-12-08T04:59:00.626Z,12
2016-12-08T05:00:00.942Z,0
2016-12-08T05:01:00.943Z,0
2016-12-08T05:02:00.822Z,0
2016-12-08T05:03:01.235Z,12
2016-12-08T05:04:00.607Z,12
2016-12-08T05:05:00.923Z,0
2016-12-08T05:06:00.923Z,0
2016-12-08T05:07:00.915Z,0
2016-12-08T05:08:00.911Z,0
2016-12-08T05:09:00.911Z,0
2016-12-08T05:10:00.583Z,0
2016-12-08T05:11:00.895Z,0
2016-12-08T05:12:00.579Z,0
2016-12-08T05:13:00.571Z,12
2016-12-08T05:14:00.883Z,0
2016-12-08T05:15:00.559Z,0
2016-12-08T05:16:00.244Z,0
2016-12-08T05:17:00.875Z,0
2016-12-08T05:18:00.554Z,0
2016-12-08T05:19:00.539Z,0
2016-12-08T05:20:00.888Z,0
2016-12-08T05:21:00.532Z,0
2016-12-08T05:22:00.852Z,0
2016-12-08T05:23:00.536Z,0
2016-12-08T05:24:00.845Z,0
2016-12-08T05:25:00.517Z,0
2016-12-08T05:26:00.516Z,0
2016-12-08T05:27:00.829Z,0
2016-12-08T05:28:00.829Z,0
2016-12-08T05:29:00.825Z,0
2016-12-08T05:30:00.505Z,0
2016-12-08T05:31:00.822Z,0
2016-12-08T05:32:00.489Z,0
2016-12-08T05:33:00.837Z,0
2016-12-08T05:34:00.802Z,12
2016-12-08T05:35:00.829Z,12
2016-12-08T05:36:00.794Z,0
2016-12-08T05:37:00.786Z,0
2016-12-08T05:38:00.466Z,0
2016-12-08T05:39:00.474Z,0
2016-12-08T05:40:00.802Z,0
2016-12-08T05:41:00.157Z,0
2016-12-08T05:42:00.806Z,0
2016-12-08T05:43:00.674Z,0
2016-12-08T05:44:00.474Z,0
2016-12-08T05:45:00.458Z,0
2016-12-08T05:46:00.462Z,0
2016-12-08T05:47:00.450Z,12
2016-12-08T05:48:00.462Z,12
2016-12-08T05:49:00.450Z,0
2016-12-08T05:50:00.118Z,0
2016-12-08T05:51:00.447Z,0
2016-12-08T05:52:00.438Z,0
2016-12-08T05:53:00.115Z,0
2016-12-08T05:54:00.423Z,0
2016-12-08T05:55:00.443Z,0
2016-12-08T05:56:00.420Z,12
2016-12-08T05:57:00.422Z,12
2016-12-08T05:57:59.759Z,0
2016-12-08T05:58:59.748Z,0
2016-12-08T06:00:00.400Z,0
2016-12-08T06:01:00.072Z,0
2016-12-08T06:02:00.396Z,0
2016-12-08T06:03:00.056Z,0
2016-12-08T06:04:00.056Z,0
2016-12-08T06:05:00.384Z,0
2016-12-08T06:06:00.384Z,0
2016-12-08T06:07:00.379Z,0
2016-12-08T06:08:00.700Z,0
2016-12-08T06:09:00.369Z,0
2016-12-08T06:10:00.356Z,12
2016-12-08T06:11:00.360Z,12
2016-12-08T06:12:00.349Z,12
2016-12-08T06:13:00.373Z,0
2016-12-08T06:13:59.692Z,0
2016-12-08T06:15:00.333Z,0
2016-12-08T06:16:00.013Z,0
2016-12-08T06:17:00.657Z,0
2016-12-08T06:18:00.660Z,0
2016-12-08T06:19:00.653Z,0
2016-12-08T06:20:00.645Z,0
2016-12-08T06:21:00.317Z,0
2016-12-08T06:22:00.320Z,0
2016-12-08T06:23:00.637Z,0
2016-12-08T06:24:00.621Z,0
2016-12-08T06:25:00.298Z,0
2016-12-08T06:26:00.622Z,0
2016-12-08T06:27:00.289Z,0
2016-12-08T06:28:00.281Z,0
2016-12-08T06:29:00.606Z,0
2016-12-08T06:30:00.282Z,0
2016-12-08T06:31:00.611Z,0
2016-12-08T06:32:00.590Z,4
2016-12-08T06:33:00.258Z,4
2016-12-08T06:34:00.262Z,0
2016-12-08T06:35:00.262Z,4
2016-12-08T06:36:00.252Z,4
2016-12-08T06:37:00.570Z,0
2016-12-08T06:38:00.231Z,4
2016-12-08T06:38:59.906Z,4
2016-12-08T06:40:00.231Z,4
2016-12-08T06:41:00.223Z,4
2016-12-08T06:42:00.562Z,4
2016-12-08T06:43:00.543Z,8
2016-12-08T06:44:00.547Z,8
2016-12-08T06:44:59.879Z,8
2016-12-08T06:46:00.563Z,12
2016-12-08T06:47:00.531Z,24
2016-12-08T06:48:00.223Z,24
2016-12-08T06:49:00.195Z,16
2016-12-08T06:50:00.199Z,16
2016-12-08T06:51:00.183Z,16
2016-12-08T06:52:00.511Z,20
2016-12-08T06:53:00.535Z,24
2016-12-08T06:53:59.851Z,24
2016-12-08T06:55:00.499Z,28
2016-12-08T06:55:59.843Z,32
2016-12-08T06:56:59.835Z,36
2016-12-08T06:57:59.499Z,40
2016-12-08T06:58:59.839Z,40
2016-12-08T06:59:59.819Z,44
2016-12-08T07:01:00.463Z,48
2016-12-08T07:01:59.823Z,64
2016-12-08T07:03:00.139Z,56
2016-12-08T07:04:00.139Z,60
2016-12-08T07:05:00.123Z,64
2016-12-08T07:06:00.133Z,72
2016-12-08T07:07:00.444Z,76
2016-12-08T07:08:00.443Z,80
2016-12-08T07:09:00.121Z,84
2016-12-08T07:10:00.102Z,104
2016-12-08T07:10:59.447Z,112
2016-12-08T07:12:00.095Z,112
2016-12-08T07:13:00.415Z,120
2016-12-08T07:14:00.091Z,120
2016-12-08T07:15:00.095Z,128
2016-12-08T07:16:00.411Z,128
2016-12-08T07:17:00.411Z,124
2016-12-08T07:17:59.891Z,136
2016-12-08T07:19:00.063Z,152
2016-12-08T07:20:00.063Z,164
2016-12-08T07:21:00.055Z,184
2016-12-08T07:22:00.063Z,192
2016-12-08T07:23:00.055Z,192
2016-12-08T07:24:00.043Z,200
2016-12-08T07:25:00.038Z,212
2016-12-08T07:26:00.367Z,220
2016-12-08T07:27:00.031Z,248
2016-12-08T07:28:00.383Z,252
2016-12-08T07:29:00.023Z,248
2016-12-08T07:29:59.691Z,272
2016-12-08T07:31:00.339Z,272
2016-12-08T07:32:00.003Z,272
2016-12-08T07:32:59.999Z,268
2016-12-08T07:34:00.327Z,280
2016-12-08T07:34:59.999Z,296
2016-12-08T07:35:59.991Z,312
2016-12-08T07:36:59.671Z,300
2016-12-08T07:37:59.331Z,288
2016-12-08T07:38:59.331Z,292
2016-12-08T07:39:59.971Z,296
2016-12-08T07:40:59.971Z,316
2016-12-08T07:41:59.967Z,328
2016-12-08T07:42:59.975Z,364
2016-12-08T07:43:59.963Z,356
2016-12-08T07:44:59.631Z,304
2016-12-08T07:45:59.627Z,280
2016-12-08T07:46:59.971Z,292
2016-12-08T07:47:59.943Z,332
2016-12-08T07:48:59.936Z,356
2016-12-08T07:49:59.940Z,368
2016-12-08T07:51:00.259Z,360
2016-12-08T07:51:59.931Z,352
2016-12-08T07:52:59.587Z,420
2016-12-08T07:54:00.236Z,468
2016-12-08T07:55:00.263Z,500
2016-12-08T07:56:00.235Z,484
2016-12-08T07:56:59.907Z,488
2016-12-08T07:57:59.571Z,516
2016-12-08T07:58:59.896Z,544
2016-12-08T07:59:59.900Z,572
2016-12-08T08:00:59.915Z,628
2016-12-08T08:01:59.880Z,640
2016-12-08T08:02:59.876Z,680
2016-12-08T08:03:59.880Z,724
2016-12-08T08:05:00.196Z,752
2016-12-08T08:05:59.868Z,736
2016-12-08T08:06:59.920Z,696
2016-12-08T08:07:59.532Z,696
2016-12-08T08:09:00.176Z,656
2016-12-08T08:10:00.172Z,612
2016-12-08T08:10:59.840Z,592
2016-12-08T08:11:59.836Z,600
2016-12-08T08:13:00.168Z,636
2016-12-08T08:13:59.832Z,696
2016-12-08T08:14:59.496Z,744
2016-12-08T08:15:59.496Z,792
2016-12-08T08:16:59.840Z,800
2016-12-08T08:18:00.145Z,784
2016-12-08T08:18:59.808Z,816
2016-12-08T08:19:59.809Z,836
2016-12-08T08:20:59.800Z,868
2016-12-08T08:21:59.809Z,944
2016-12-08T08:23:00.122Z,988
2016-12-08T08:23:59.456Z,968
2016-12-08T08:24:59.780Z,964
2016-12-08T08:25:59.785Z,956
2016-12-08T08:27:00.101Z,924
2016-12-08T08:28:00.101Z,940
2016-12-08T08:28:59.761Z,968
2016-12-08T08:29:59.436Z,1016
2016-12-08T08:30:59.441Z,992
2016-12-08T08:31:59.749Z,1000
2016-12-08T08:32:59.104Z,1020
2016-12-08T08:33:59.753Z,1096
2016-12-08T08:35:00.073Z,1184
2016-12-08T08:35:59.744Z,1420
2016-12-08T08:36:59.741Z,1324
2016-12-08T08:37:59.736Z,1216
2016-12-08T08:38:59.401Z,1132
2016-12-08T08:39:59.728Z,1044
2016-12-08T08:40:59.721Z,1060
2016-12-08T08:42:00.041Z,1104
2016-12-08T08:42:59.713Z,1252
2016-12-08T08:44:00.025Z,1348
2016-12-08T08:44:59.380Z,1276
2016-12-08T08:45:59.701Z,1212
2016-12-08T08:46:59.701Z,1236
2016-12-08T08:48:00.021Z,1292
2016-12-08T08:48:59.689Z,1296
2016-12-08T08:49:59.685Z,1256
2016-12-08T08:50:59.685Z,1248
2016-12-08T08:52:00.009Z,1232
2016-12-08T08:53:00.005Z,1188
2016-12-08T08:53:59.341Z,1180
2016-12-08T08:55:00.029Z,1168
2016-12-08T08:55:59.329Z,1176
2016-12-08T08:56:59.989Z,1164
2016-12-08T08:57:58.997Z,1176
2016-12-08T08:58:59.645Z,1180
2016-12-08T09:00:00.009Z,1212
2016-12-08T09:00:59.305Z,1228
2016-12-08T09:01:59.313Z,1216
2016-12-08T09:02:59.333Z,1236
2016-12-08T09:03:59.965Z,1256
2016-12-08T09:04:59.293Z,1296
2016-12-08T09:05:59.618Z,1280
2016-12-08T09:06:59.618Z,1312
2016-12-08T09:07:59.623Z,1300
2016-12-08T09:08:59.930Z,1276
2016-12-08T09:09:59.614Z,1272
2016-12-08T09:10:59.930Z,1268
2016-12-08T09:11:59.598Z,1240
2016-12-08T09:12:59.593Z,1284
2016-12-08T09:13:59.410Z,1300
2016-12-08T09:14:59.586Z,1324
2016-12-08T09:15:59.910Z,1340
2016-12-08T09:16:59.904Z,1344
2016-12-08T09:17:59.246Z,1348
2016-12-08T09:18:59.570Z,1384
2016-12-08T09:19:59.580Z,1400
2016-12-08T09:20:59.571Z,1448
2016-12-08T09:21:59.906Z,1440
2016-12-08T09:22:59.222Z,1444
2016-12-08T09:23:59.882Z,1440
2016-12-08T09:24:59.878Z,1432
2016-12-08T09:25:59.542Z,1448
2016-12-08T09:26:59.550Z,1500
2016-12-08T09:27:59.210Z,1532
2016-12-08T09:28:59.855Z,1560
2016-12-08T09:29:59.527Z,1616
2016-12-08T09:30:59.518Z,1624
2016-12-08T09:31:59.199Z,1648
2016-12-08T09:32:59.523Z,1708
2016-12-08T09:33:59.510Z,1712
2016-12-08T09:34:59.171Z,1756
2016-12-08T09:35:59.502Z,1856
2016-12-08T09:36:59.178Z,1960
2016-12-08T09:37:59.175Z,2032
2016-12-08T09:38:59.175Z,2092
2016-12-08T09:39:59.491Z,2140
2016-12-08T09:40:59.815Z,2204
2016-12-08T09:41:59.155Z,2292
2016-12-08T09:42:59.799Z,2304
2016-12-08T09:43:59.807Z,2352
2016-12-08T09:44:59.147Z,2368
2016-12-08T09:45:59.139Z,2284
2016-12-08T09:46:59.460Z,2328
2016-12-08T09:47:59.780Z,2364
2016-12-08T09:48:59.130Z,2416
2016-12-08T09:49:59.451Z,2440
2016-12-08T09:50:59.451Z,2460
2016-12-08T09:51:59.116Z,2572
2016-12-08T09:52:59.440Z,2736
2016-12-08T09:54:00.068Z,2860
2016-12-08T09:54:59.104Z,2936
2016-12-08T09:55:59.103Z,2828
2016-12-08T09:56:59.428Z,2560
2016-12-08T09:57:59.424Z,2348
2016-12-08T09:58:59.424Z,2252
2016-12-08T09:59:59.744Z,2344
2016-12-08T10:00:59.088Z,2456
2016-12-08T10:01:59.740Z,2356
2016-12-08T10:02:59.404Z,2148
2016-12-08T10:03:59.076Z,1988
2016-12-08T10:04:59.404Z,1944
2016-12-08T10:05:59.400Z,2048
2016-12-08T10:06:59.396Z,2004
2016-12-08T10:07:59.381Z,1920
2016-12-08T10:08:59.388Z,1976
2016-12-08T10:09:59.713Z,2036
2016-12-08T10:10:59.713Z,2168
2016-12-08T10:11:59.045Z,2216
2016-12-08T10:12:59.373Z,2144
2016-12-08T10:13:59.033Z,2104
2016-12-08T10:14:59.044Z,2056
2016-12-08T10:15:59.693Z,2040
2016-12-08T10:16:59.689Z,2024
2016-12-08T10:17:59.689Z,2108
2016-12-08T10:18:59.381Z,2148
2016-12-08T10:19:59.029Z,2184
2016-12-08T10:20:59.681Z,2204
2016-12-08T10:21:59.337Z,2248
2016-12-08T10:22:59.689Z,2264
2016-12-08T10:23:59.670Z,2224
2016-12-08T10:24:59.006Z,2156
2016-12-08T10:25:59.334Z,2144
2016-12-08T10:26:59.321Z,2084
2016-12-08T10:27:59.322Z,2148
2016-12-08T10:28:59.318Z,2300
2016-12-08T10:29:58.986Z,2240
2016-12-08T10:30:59.318Z,2224
2016-12-08T10:31:59.638Z,2256
2016-12-08T10:32:59.314Z,2324
2016-12-08T10:33:58.974Z,2284
2016-12-08T10:34:58.971Z,2260
2016-12-08T10:35:59.298Z,2360
2016-12-08T10:36:58.962Z,2508
2016-12-08T10:37:59.286Z,2552
2016-12-08T10:38:59.282Z,2548
2016-12-08T10:39:59.610Z,2672
2016-12-08T10:40:59.279Z,2672
2016-12-08T10:41:59.606Z,2832
2016-12-08T10:42:59.599Z,2764
2016-12-08T10:43:58.947Z,2732
2016-12-08T10:44:59.599Z,2764
2016-12-08T10:45:59.599Z,2772
2016-12-08T10:46:58.935Z,2744
2016-12-08T10:47:59.591Z,2680
2016-12-08T10:48:59.580Z,2608
2016-12-08T10:49:59.251Z,2568
2016-12-08T10:50:59.251Z,2520
2016-12-08T10:51:58.927Z,2560
2016-12-08T10:52:59.243Z,2636
2016-12-08T10:53:59.239Z,2904
2016-12-08T10:54:59.567Z,3056
2016-12-08T10:55:59.240Z,2988
2016-12-08T10:56:58.903Z,2924
2016-12-08T10:57:59.227Z,2996
2016-12-08T10:58:58.896Z,3048
2016-12-08T10:59:59.551Z,3156
2016-12-08T11:00:59.544Z,3268
2016-12-08T11:01:59.218Z,3184
2016-12-08T11:02:59.220Z,2980
2016-12-08T11:03:59.212Z,2900
2016-12-08T11:04:58.872Z,2668
2016-12-08T11:05:58.868Z,2584
2016-12-08T11:06:59.192Z,2516
2016-12-08T11:07:58.864Z,2504
2016-12-08T11:08:59.524Z,2596
2016-12-08T11:09:59.189Z,2724
2016-12-08T11:10:59.184Z,2708
2016-12-08T11:11:58.856Z,2668
2016-12-08T11:12:58.852Z,2604
2016-12-08T11:13:59.176Z,2532
2016-12-08T11:14:59.503Z,2552
2016-12-08T11:15:59.496Z,2588
2016-12-08T11:16:59.172Z,2652
2016-12-08T11:17:59.157Z,2612
2016-12-08T11:18:59.160Z,2536
2016-12-08T11:19:59.484Z,2440
2016-12-08T11:20:59.161Z,2308
2016-12-08T11:21:59.140Z,2196
2016-12-08T11:22:59.484Z,2116
2016-12-08T11:23:58.817Z,2140
2016-12-08T11:24:58.485Z,2148
2016-12-08T11:25:58.817Z,2188
2016-12-08T11:26:59.140Z,2200
2016-12-08T11:27:59.137Z,2276
2016-12-08T11:28:58.820Z,2408
2016-12-08T11:29:59.125Z,2552
2016-12-08T11:30:59.452Z,2560
2016-12-08T11:31:58.796Z,2532
2016-12-08T11:32:59.124Z,2504
2016-12-08T11:33:59.445Z,2372
2016-12-08T11:34:59.109Z,2164
2016-12-08T11:35:59.451Z,2068
2016-12-08T11:36:59.429Z,2040
2016-12-08T11:37:58.772Z,2004
2016-12-08T11:38:58.772Z,1944
2016-12-08T11:39:58.448Z,1884
2016-12-08T11:40:59.100Z,1808
2016-12-08T11:41:59.089Z,1728
2016-12-08T11:42:59.085Z,1664
2016-12-08T11:43:59.420Z,1624
2016-12-08T11:44:59.088Z,1696
2016-12-08T11:45:59.081Z,1708
2016-12-08T11:46:58.761Z,1760
2016-12-08T11:47:59.076Z,1764
2016-12-08T11:48:59.421Z,1704
2016-12-08T11:49:59.401Z,1612
2016-12-08T11:50:59.397Z,1500
2016-12-08T11:51:59.393Z,1480
2016-12-08T11:52:59.385Z,1524
2016-12-08T11:53:58.737Z,1552
2016-12-08T11:54:59.061Z,1540
2016-12-08T11:55:59.385Z,1528
2016-12-08T11:56:58.721Z,1460
2016-12-08T11:57:59.045Z,1404
2016-12-08T11:58:59.373Z,1400
2016-12-08T11:59:59.066Z,1396
2016-12-08T12:00:59.033Z,1380
2016-12-08T12:01:59.041Z,1368
2016-12-08T12:02:59.361Z,1364
2016-12-08T12:03:59.037Z,1364
2016-12-08T12:04:59.025Z,1368
2016-12-08T12:05:59.025Z,1360
2016-12-08T12:06:58.697Z,1360
2016-12-08T12:07:59.025Z,1364
2016-12-08T12:08:59.016Z,1360
2016-12-08T12:09:59.336Z,1364
2016-12-08T12:10:59.005Z,1364
2016-12-08T12:11:59.001Z,1360
2016-12-08T12:12:58.677Z,1356
2016-12-08T12:13:59.005Z,1352
2016-12-08T12:14:59.329Z,1352
2016-12-08T12:15:58.992Z,1348
2016-12-08T12:16:58.992Z,1348
2016-12-08T12:17:59.333Z,1344
2016-12-08T12:18:58.988Z,1336
2016-12-08T12:19:58.657Z,1336
2016-12-08T12:20:58.980Z,1344
2016-12-08T12:21:58.964Z,1356
2016-12-08T12:22:58.968Z,1380
2016-12-08T12:23:59.300Z,1396
2016-12-08T12:24:58.968Z,1396
2016-12-08T12:25:58.296Z,1396
2016-12-08T12:26:58.952Z,1392
2016-12-08T12:27:59.284Z,1392
2016-12-08T12:28:58.948Z,1384
2016-12-08T12:29:58.944Z,1388
2016-12-08T12:30:58.945Z,1384
2016-12-08T12:31:58.936Z,1384
2016-12-08T12:32:59.268Z,1380
2016-12-08T12:33:58.936Z,1376
2016-12-08T12:34:58.608Z,1376
2016-12-08T12:35:59.256Z,1376
2016-12-08T12:36:58.597Z,1372
2016-12-08T12:37:58.596Z,1368
2016-12-08T12:38:58.920Z,1372
2016-12-08T12:39:58.916Z,1368
2016-12-08T12:40:58.252Z,1368
2016-12-08T12:41:58.904Z,1364
2016-12-08T12:42:58.593Z,1364
2016-12-08T12:43:58.904Z,1364
2016-12-08T12:44:58.905Z,1360
2016-12-08T12:45:58.564Z,1360
2016-12-08T12:46:58.892Z,1356
2016-12-08T12:47:58.560Z,1356
2016-12-08T12:48:59.216Z,1356
2016-12-08T12:49:59.216Z,1352
2016-12-08T12:50:58.876Z,1348
2016-12-08T12:51:58.869Z,1348
2016-12-08T12:52:59.189Z,1344
2016-12-08T12:53:59.201Z,1340
2016-12-08T12:54:59.196Z,1336
2016-12-08T12:55:58.864Z,1336
2016-12-08T12:56:59.185Z,1332
2016-12-08T12:57:58.857Z,1332
2016-12-08T12:58:58.853Z,1328
2016-12-08T12:59:59.180Z,1328
2016-12-08T13:00:59.180Z,1324
2016-12-08T13:01:58.848Z,1324
2016-12-08T13:02:59.176Z,1324
2016-12-08T13:03:58.504Z,1320
2016-12-08T13:04:58.829Z,1320
2016-12-08T13:05:58.832Z,1320
2016-12-08T13:06:58.832Z,1316
2016-12-08T13:07:58.494Z,1312
2016-12-08T13:08:58.497Z,1308
2016-12-08T13:09:58.821Z,1308
2016-12-08T13:10:58.489Z,1308
2016-12-08T13:11:58.817Z,1304
2016-12-08T13:12:58.811Z,1300
2016-12-08T13:13:58.804Z,1300
2016-12-08T13:14:59.129Z,1296
2016-12-08T13:15:58.801Z,1296
2016-12-08T13:16:58.492Z,1292
2016-12-08T13:17:59.125Z,1288
2016-12-08T13:18:58.797Z,1288
2016-12-08T13:19:58.793Z,1288
2016-12-08T13:20:59.109Z,1284
2016-12-08T13:21:58.453Z,1280
2016-12-08T13:22:59.117Z,1276
2016-12-08T13:23:58.777Z,1276
2016-12-08T13:24:59.093Z,1272
2016-12-08T13:25:58.765Z,1268
2016-12-08T13:26:59.090Z,1264
2016-12-08T13:27:58.429Z,1264
2016-12-08T13:28:59.077Z,1264
2016-12-08T13:29:58.785Z,1256
2016-12-08T13:30:59.069Z,1256
2016-12-08T13:31:58.749Z,1252
2016-12-08T13:32:58.737Z,1244
2016-12-08T13:33:59.057Z,1240
2016-12-08T13:34:59.062Z,1232
2016-12-08T13:35:59.061Z,1232
2016-12-08T13:36:59.058Z,1232
2016-12-08T13:37:58.726Z,1228
2016-12-08T13:38:58.717Z,1224
2016-12-08T13:39:58.725Z,1220
2016-12-08T13:40:58.718Z,1212
2016-12-08T13:41:59.046Z,1208
2016-12-08T13:42:58.714Z,1204
2016-12-08T13:43:58.702Z,1200
2016-12-08T13:44:59.034Z,1192
2016-12-08T13:45:58.370Z,1188
2016-12-08T13:46:58.698Z,1180
2016-12-08T13:47:58.686Z,1172
2016-12-08T13:48:58.682Z,1172
2016-12-08T13:49:58.687Z,1164
2016-12-08T13:50:58.686Z,1160
2016-12-08T13:51:59.015Z,1156
2016-12-08T13:52:58.670Z,1152
2016-12-08T13:53:58.670Z,1140
2016-12-08T13:54:58.351Z,1140
2016-12-08T13:55:58.338Z,1136
2016-12-08T13:56:58.655Z,1124
2016-12-08T13:57:58.982Z,1120
2016-12-08T13:58:58.666Z,1108
2016-12-08T13:59:58.655Z,1096
2016-12-08T14:00:58.647Z,1084
2016-12-08T14:01:58.647Z,1076